Terminal Aerodrome Forecast
Issued by NWS

Home | Current Version | Previous Version | Text Only | Print | Product List | Glossary Off
Versions: 1 2 3 4 5 6 7 8 9 10 11 12 13 14 15 16 17 18 19 20 21

000
FTUS43 KMPX 191120
TAFRNH
TAF
KRNH 191120Z 1912/2012 VRB02KT 1/2SM FG BKN002
     FM191300 13004KT P6SM SKC
     FM191800 14007KT P6SM FEW040 SCT250
     FM200100 13007KT P6SM VCTS BKN050CB OVC100 PROB30 2002/2005 3SM
      TSRA BKN025CB
     FM200500 14005KT 6SM BR BKN015=

USA.gov is the U.S. government's official web portal to all federal, state and local government web resources and services.